createdAt,value
2022-08-11T00:02:40.467Z,20.58
2022-08-11T00:10:16.238Z,20.49
2022-08-11T00:17:57.395Z,20.45
2022-08-11T00:25:31.936Z,20.37
2022-08-11T00:33:08.535Z,20.34
2022-08-11T00:40:46.445Z,20.25
2022-08-11T00:48:33.878Z,20.17
2022-08-11T00:56:43.609Z,20.08
2022-08-11T01:04:59.708Z,19.99
2022-08-11T01:12:50.847Z,19.92
2022-08-11T01:20:57.602Z,19.86
2022-08-11T01:29:14.310Z,19.80
2022-08-11T01:37:24.178Z,19.68
2022-08-11T01:45:12.613Z,19.57
2022-08-11T01:53:17.210Z,19.42
2022-08-11T02:01:03.874Z,19.28
2022-08-11T02:08:50.637Z,19.21
2022-08-11T02:16:40.958Z,19.14
2022-08-11T02:24:21.893Z,19.05
2022-08-11T02:32:31.067Z,18.94
2022-08-11T02:40:17.621Z,18.79
2022-08-11T02:48:19.816Z,18.62
2022-08-11T02:56:04.430Z,18.52
2022-08-11T03:03:51.479Z,18.41
2022-08-11T03:12:08.945Z,18.30
2022-08-11T03:19:50.943Z,18.18
2022-08-11T03:27:38.259Z,18.08
2022-08-11T03:35:21.428Z,17.95
2022-08-11T03:43:04.424Z,17.83
2022-08-11T03:50:58.093Z,17.74
2022-08-11T03:58:54.831Z,17.69
2022-08-11T04:07:03.399Z,17.65
2022-08-11T04:15:08.771Z,17.55
2022-08-11T04:23:03.233Z,17.48
2022-08-11T04:30:58.215Z,17.46
2022-08-11T04:39:11.886Z,17.43
2022-08-11T04:47:07.507Z,17.44
2022-08-11T04:55:17.747Z,17.46
2022-08-11T05:03:24.321Z,17.55
2022-08-11T05:11:20.796Z,17.66
2022-08-11T05:19:16.035Z,17.80
2022-08-11T05:27:13.763Z,18.01
2022-08-11T05:34:54.412Z,18.20
2022-08-11T05:42:48.135Z,18.53
2022-08-11T05:50:41.759Z,18.67
2022-08-11T05:58:17.841Z,18.97
2022-08-11T06:05:52.488Z,19.22
2022-08-11T06:13:30.121Z,19.48
2022-08-11T06:21:10.657Z,19.77
2022-08-11T06:28:47.963Z,20.16
2022-08-11T06:36:27.899Z,20.23
2022-08-11T06:44:16.470Z,20.51
2022-08-11T06:51:50.937Z,20.67
2022-08-11T06:59:45.657Z,21.18
2022-08-11T07:08:34.273Z,21.29
2022-08-11T07:16:14.081Z,21.60
2022-08-11T07:24:06.479Z,21.99
2022-08-11T07:31:45.324Z,22.03
2022-08-11T07:39:23.014Z,22.75
2022-08-11T07:47:16.794Z,22.96
2022-08-11T07:54:51.502Z,23.11
2022-08-11T08:02:44.168Z,23.42
2022-08-11T08:10:37.645Z,24.02
2022-08-11T08:18:25.930Z,24.53
2022-08-11T08:26:03.110Z,25.12
2022-08-11T08:33:43.236Z,25.35
2022-08-11T08:41:23.700Z,25.67
2022-08-11T08:49:02.926Z,26.94
2022-08-11T08:56:39.654Z,27.09
2022-08-11T09:04:20.349Z,27.58
2022-08-11T09:11:55.733Z,27.80
2022-08-11T09:19:31.119Z,28.10
2022-08-11T09:27:07.658Z,28.55
2022-08-11T09:34:44.255Z,28.72
2022-08-11T09:42:23.566Z,28.80
2022-08-11T09:50:01.627Z,29.10
2022-08-11T09:57:55.179Z,29.48
2022-08-11T10:05:49.754Z,29.50
2022-08-11T10:14:30.400Z,29.29
2022-08-11T10:21:30.639Z,29.41
2022-08-11T10:29:31.357Z,28.74
2022-08-11T10:37:15.197Z,28.53
2022-08-11T10:44:53.148Z,28.46
2022-08-11T10:52:46.779Z,28.29
2022-08-11T11:00:20.882Z,28.13
2022-08-11T11:08:04.160Z,27.94
2022-08-11T11:15:58.152Z,28.17
2022-08-11T11:23:41.508Z,28.11
2022-08-11T11:31:26.629Z,28.04
2022-08-11T11:39:01.937Z,28.22
2022-08-11T11:46:39.069Z,28.23
2022-08-11T11:54:15.930Z,28.31
2022-08-11T12:01:50.516Z,28.53
2022-08-11T12:09:28.202Z,28.32
2022-08-11T12:17:02.387Z,28.35
2022-08-11T12:24:57.203Z,28.33
2022-08-11T12:32:33.223Z,28.33
2022-08-11T12:40:43.711Z,28.41
2022-08-11T12:49:01.069Z,28.41
2022-08-11T12:57:11.136Z,28.52
2022-08-11T13:05:00.265Z,28.76
2022-08-11T13:12:51.956Z,28.80
2022-08-11T13:20:26.796Z,28.90
2022-08-11T13:28:03.094Z,28.90
2022-08-11T13:35:37.680Z,28.88
2022-08-11T13:43:15.413Z,28.99
2022-08-11T13:51:07.268Z,29.12
2022-08-11T13:58:43.686Z,29.03
2022-08-11T14:06:23.111Z,29.17
2022-08-11T14:13:59.409Z,29.30
2022-08-11T14:21:55.241Z,29.36
2022-08-11T14:29:32.629Z,29.26
2022-08-11T14:37:21.752Z,29.78
2022-08-11T14:45:17.137Z,29.84
2022-08-11T14:52:55.247Z,29.83
2022-08-11T15:00:31.690Z,30.26
2022-08-11T15:08:06.776Z,29.72
2022-08-11T15:16:05.641Z,29.70
2022-08-11T15:23:58.449Z,30.25
2022-08-11T15:31:53.066Z,30.27
2022-08-11T15:39:32.400Z,29.91
2022-08-11T15:47:09.676Z,30.08
2022-08-11T15:54:46.362Z,30.68
2022-08-11T16:02:41.303Z,30.27
2022-08-11T16:10:19.352Z,30.16
2022-08-11T16:17:57.226Z,30.28
2022-08-11T16:27:03.990Z,29.58
2022-08-11T16:33:49.847Z,29.33
2022-08-11T16:41:46.042Z,29.23
2022-08-11T16:49:30.374Z,29.70
2022-08-11T16:57:27.902Z,29.79
2022-08-11T17:05:54.685Z,29.21
2022-08-11T17:13:36.462Z,28.98
2022-08-11T17:21:15.975Z,28.63
2022-08-11T17:28:53.928Z,28.46
2022-08-11T17:36:29.307Z,28.36
2022-08-11T17:44:22.744Z,28.19
2022-08-11T17:52:15.568Z,28.05
2022-08-11T17:59:56.346Z,27.83
2022-08-11T18:07:49.285Z,27.68
2022-08-11T18:15:55.528Z,27.57
2022-08-11T18:23:50.193Z,27.26
2022-08-11T18:31:43.573Z,27.10
2022-08-11T18:39:38.435Z,26.82
2022-08-11T18:47:33.469Z,26.65
2022-08-11T18:55:32.431Z,26.52
2022-08-11T19:03:25.394Z,26.24
2022-08-11T19:11:19.578Z,26.15
2022-08-11T19:19:14.959Z,25.88
2022-08-11T19:27:11.211Z,25.71
2022-08-11T19:35:04.072Z,25.45
2022-08-11T19:42:59.246Z,25.19
2022-08-11T19:50:51.961Z,24.90
2022-08-11T19:58:44.991Z,24.65
2022-08-11T20:06:38.632Z,24.39
2022-08-11T20:14:32.674Z,24.12
2022-08-11T20:22:24.740Z,23.85
2022-08-11T20:30:20.101Z,23.64
2022-08-11T20:38:13.952Z,23.40
2022-08-11T20:46:08.322Z,23.17
2022-08-11T20:54:05.786Z,22.89
2022-08-11T21:02:03.071Z,22.71
2022-08-11T21:10:00.856Z,22.51
2022-08-11T21:18:10.318Z,22.36
2022-08-11T21:26:04.664Z,22.23
2022-08-11T21:33:58.570Z,22.09
2022-08-11T21:41:51.652Z,22.09
2022-08-11T21:49:46.030Z,22.19
2022-08-11T21:57:49.912Z,22.19
2022-08-11T22:05:44.358Z,22.17
2022-08-11T22:13:35.440Z,22.11
2022-08-11T22:21:56.565Z,22.10
2022-08-11T22:29:50.881Z,22.05
2022-08-11T22:37:44.760Z,22.01
2022-08-11T22:45:36.883Z,21.95
2022-08-11T22:53:57.644Z,21.89
2022-08-11T23:01:54.762Z,21.79
2022-08-11T23:09:49.832Z,21.70
2022-08-11T23:17:42.457Z,21.60
2022-08-11T23:25:35.538Z,21.49
2022-08-11T23:33:27.965Z,21.39
2022-08-11T23:41:21.940Z,21.24
2022-08-11T23:49:16.106Z,21.04
2022-08-11T23:57:09.025Z,21.00
